createdAt,value
2023-04-08T00:00:30.908Z,16.00
2023-04-08T00:02:59.361Z,15.98
2023-04-08T00:05:29.228Z,15.96
2023-04-08T00:07:57.345Z,15.95
2023-04-08T00:10:26.511Z,15.93
2023-04-08T00:12:55.766Z,15.90
2023-04-08T00:15:24.040Z,15.88
2023-04-08T00:17:54.406Z,15.89
2023-04-08T00:20:25.500Z,15.86
2023-04-08T00:22:55.279Z,15.83
2023-04-08T00:25:25.393Z,15.81
2023-04-08T00:27:53.883Z,15.82
2023-04-08T00:30:22.516Z,15.80
2023-04-08T00:32:51.528Z,15.77
2023-04-08T00:35:19.698Z,15.77
2023-04-08T00:37:47.990Z,15.72
2023-04-08T00:40:17.958Z,15.75
2023-04-08T00:42:46.057Z,15.72
2023-04-08T00:45:14.527Z,15.71
2023-04-08T00:47:43.861Z,15.69
2023-04-08T00:50:12.694Z,15.68
2023-04-08T00:52:42.130Z,15.67
2023-04-08T00:55:10.551Z,15.66
2023-04-08T00:57:40.124Z,15.63
2023-04-08T01:00:11.384Z,15.63
2023-04-08T01:02:49.913Z,15.62
2023-04-08T01:05:29.773Z,15.61
2023-04-08T01:08:00.952Z,15.57
2023-04-08T01:10:32.527Z,15.56
2023-04-08T01:13:06.449Z,15.55
2023-04-08T01:15:37.780Z,15.53
2023-04-08T01:18:08.469Z,15.54
2023-04-08T01:20:37.276Z,15.53
2023-04-08T01:23:12.243Z,15.51
2023-04-08T01:25:40.867Z,15.48
2023-04-08T01:28:13.631Z,15.49
2023-04-08T01:30:43.754Z,15.46
2023-04-08T01:33:14.565Z,15.46
2023-04-08T01:35:43.157Z,15.44
2023-04-08T01:38:18.159Z,15.42
2023-04-08T01:40:48.201Z,15.42
2023-04-08T01:43:18.964Z,15.40
2023-04-08T01:45:48.819Z,15.39
2023-04-08T01:48:17.590Z,15.38
2023-04-08T01:50:46.600Z,15.36
2023-04-08T01:53:15.093Z,15.36
2023-04-08T01:55:44.454Z,15.34
2023-04-08T01:58:18.328Z,15.33
2023-04-08T02:00:48.948Z,15.33
2023-04-08T02:03:20.103Z,15.31
2023-04-08T02:05:48.591Z,15.30
2023-04-08T02:08:16.649Z,15.29
2023-04-08T02:10:45.042Z,15.29
2023-04-08T02:13:13.205Z,15.27
2023-04-08T02:15:49.011Z,15.27
2023-04-08T02:18:25.997Z,15.25
2023-04-08T02:20:58.728Z,15.22
2023-04-08T02:23:30.468Z,15.21
2023-04-08T02:25:58.654Z,15.21
2023-04-08T02:28:28.166Z,15.19
2023-04-08T02:31:00.668Z,15.18
2023-04-08T02:33:30.468Z,15.17
2023-04-08T02:35:59.005Z,15.16
2023-04-08T02:38:29.850Z,15.12
2023-04-08T02:40:58.668Z,15.14
2023-04-08T02:43:31.866Z,15.14
2023-04-08T02:46:03.401Z,15.12
2023-04-08T02:48:33.199Z,15.11
2023-04-08T02:51:02.053Z,15.10
2023-04-08T02:53:30.391Z,15.09
2023-04-08T02:55:58.466Z,15.08
2023-04-08T02:58:26.809Z,15.06
2023-04-08T03:00:55.429Z,15.06
2023-04-08T03:03:27.802Z,15.05
2023-04-08T03:05:58.236Z,15.04
2023-04-08T03:08:26.502Z,15.03
2023-04-08T03:10:54.732Z,14.99
2023-04-08T03:13:23.279Z,14.99
2023-04-08T03:15:51.353Z,15.00
2023-04-08T03:18:19.509Z,14.98
2023-04-08T03:20:47.768Z,14.96
2023-04-08T03:23:17.516Z,14.96
2023-04-08T03:25:45.754Z,14.96
2023-04-08T03:28:13.800Z,14.97
2023-04-08T03:30:48.654Z,14.95
2023-04-08T03:33:16.718Z,14.91
2023-04-08T03:35:44.902Z,14.93
2023-04-08T03:38:13.037Z,14.91
2023-04-08T03:40:42.621Z,14.91
2023-04-08T03:43:11.816Z,14.89
2023-04-08T03:45:39.955Z,14.87
2023-04-08T03:48:08.210Z,14.86
2023-04-08T03:50:36.615Z,14.84
2023-04-08T03:53:04.803Z,14.85
2023-04-08T03:55:32.889Z,14.84
2023-04-08T03:58:02.433Z,14.81
2023-04-08T04:00:31.832Z,14.81
2023-04-08T04:03:00.400Z,14.80
2023-04-08T04:05:28.599Z,14.80
2023-04-08T04:07:58.369Z,14.80
2023-04-08T04:10:26.757Z,14.78
2023-04-08T04:12:54.929Z,14.76
2023-04-08T04:15:24.451Z,14.78
2023-04-08T04:17:53.012Z,14.74
2023-04-08T04:20:24.712Z,14.76
2023-04-08T04:22:52.949Z,14.74
2023-04-08T04:25:21.433Z,14.74
2023-04-08T04:27:49.587Z,14.69
2023-04-08T04:30:19.606Z,14.72
2023-04-08T04:32:49.208Z,14.71
2023-04-08T04:35:17.323Z,14.71
2023-04-08T04:37:45.626Z,14.69
2023-04-08T04:40:14.038Z,14.72
2023-04-08T04:42:42.333Z,14.73
2023-04-08T04:45:11.377Z,14.80
2023-04-08T04:47:39.394Z,14.88
2023-04-08T04:50:10.104Z,14.96
2023-04-08T04:52:38.317Z,15.04
2023-04-08T04:55:07.286Z,15.11
2023-04-08T04:57:35.376Z,15.18
2023-04-08T05:00:05.592Z,15.27
2023-04-08T05:02:34.514Z,15.36
2023-04-08T05:05:02.823Z,15.46
2023-04-08T05:07:32.368Z,15.53
2023-04-08T05:10:04.545Z,15.61
2023-04-08T05:12:34.226Z,15.68
2023-04-08T05:15:02.368Z,15.78
2023-04-08T05:17:30.567Z,15.85
2023-04-08T05:19:59.828Z,15.95
2023-04-08T05:22:28.253Z,16.03
2023-04-08T05:24:57.717Z,16.12
2023-04-08T05:27:25.940Z,16.23
2023-04-08T05:29:54.966Z,16.31
2023-04-08T05:32:23.163Z,16.37
2023-04-08T05:34:51.216Z,16.48
2023-04-08T05:37:21.505Z,16.54
2023-04-08T05:39:49.996Z,16.62
2023-04-08T05:42:19.467Z,16.62
2023-04-08T05:44:47.585Z,16.67
2023-04-08T05:47:16.331Z,16.70
2023-04-08T05:49:44.492Z,16.70
2023-04-08T05:52:12.618Z,16.71
2023-04-08T05:54:44.229Z,16.69
2023-04-08T05:57:12.308Z,16.69
2023-04-08T05:59:41.757Z,16.69
2023-04-08T06:02:10.028Z,16.68
2023-04-08T06:04:38.234Z,16.64
2023-04-08T06:07:08.428Z,16.65
2023-04-08T06:09:38.120Z,16.62
2023-04-08T06:12:06.973Z,16.59
2023-04-08T06:14:34.971Z,16.59
2023-04-08T06:17:04.569Z,16.57
2023-04-08T06:19:33.146Z,16.52
2023-04-08T06:22:01.526Z,16.51
2023-04-08T06:24:30.392Z,16.48
2023-04-08T06:26:58.438Z,16.47
2023-04-08T06:29:26.592Z,16.43
2023-04-08T06:31:54.843Z,16.42
2023-04-08T06:34:24.429Z,16.39
2023-04-08T06:36:52.660Z,16.34
2023-04-08T06:39:21.562Z,16.33
2023-04-08T06:41:49.711Z,16.31
2023-04-08T06:44:17.821Z,16.29
2023-04-08T06:46:46.159Z,16.24
2023-04-08T06:49:14.268Z,16.23
2023-04-08T06:51:43.794Z,16.19
2023-04-08T06:54:11.977Z,16.17
2023-04-08T06:56:43.037Z,16.15
2023-04-08T06:59:11.163Z,16.11
2023-04-08T07:01:39.423Z,16.07
2023-04-08T07:04:07.608Z,16.05
2023-04-08T07:06:35.800Z,16.02
2023-04-08T07:09:05.446Z,15.99
2023-04-08T07:11:33.921Z,15.98
2023-04-08T07:14:02.851Z,15.94
2023-04-08T07:16:31.090Z,15.94
2023-04-08T07:18:59.350Z,15.91
2023-04-08T07:21:27.544Z,15.90
2023-04-08T07:23:55.747Z,15.87
2023-04-08T07:26:25.287Z,15.85
2023-04-08T07:28:53.486Z,15.83
2023-04-08T07:31:21.829Z,15.82
2023-04-08T07:33:49.925Z,15.78
2023-04-08T07:36:18.440Z,15.77
2023-04-08T07:38:46.720Z,15.75
2023-04-08T07:41:15.017Z,15.73
2023-04-08T07:43:44.774Z,15.71
2023-04-08T07:46:12.954Z,15.70
2023-04-08T07:48:41.156Z,15.66
2023-04-08T07:51:11.617Z,15.65
2023-04-08T07:53:40.795Z,15.64
2023-04-08T07:56:13.545Z,15.63
2023-04-08T07:58:42.024Z,15.58
2023-04-08T08:01:22.290Z,15.57
2023-04-08T08:03:52.306Z,15.55
2023-04-08T08:06:20.965Z,15.55
2023-04-08T08:08:49.303Z,15.55
2023-04-08T08:11:17.417Z,15.52
2023-04-08T08:13:45.501Z,15.50
2023-04-08T08:16:13.667Z,15.49
2023-04-08T08:18:43.594Z,15.48
2023-04-08T08:21:11.695Z,15.46
2023-04-08T08:23:44.724Z,15.44
2023-04-08T08:26:12.754Z,15.42
2023-04-08T08:28:41.424Z,15.41
2023-04-08T08:31:09.514Z,15.38
2023-04-08T08:33:37.672Z,15.39
2023-04-08T08:36:07.332Z,15.38
2023-04-08T08:38:35.461Z,15.36
2023-04-08T08:41:04.603Z,15.36
2023-04-08T08:43:47.538Z,15.35
2023-04-08T08:46:19.096Z,15.34
2023-04-08T08:48:47.404Z,15.33
2023-04-08T08:51:16.912Z,15.30
2023-04-08T08:53:45.655Z,15.31
2023-04-08T08:56:18.512Z,15.29
2023-04-08T08:58:47.536Z,15.29
2023-04-08T09:01:33.099Z,15.27
2023-04-08T09:04:09.443Z,15.25
2023-04-08T09:06:39.772Z,15.26
2023-04-08T09:09:10.556Z,15.25
2023-04-08T09:11:40.536Z,15.21
2023-04-08T09:14:20.017Z,15.24
2023-04-08T09:16:48.432Z,15.23
2023-04-08T09:19:16.688Z,15.20
2023-04-08T09:21:46.306Z,15.22
2023-04-08T09:24:29.956Z,15.21
2023-04-08T09:26:58.024Z,15.19
2023-04-08T09:29:29.396Z,15.19
2023-04-08T09:32:04.502Z,15.17
2023-04-08T09:34:34.498Z,15.17
2023-04-08T09:37:04.153Z,15.18
2023-04-08T09:39:32.405Z,15.15
2023-04-08T09:42:06.925Z,15.15
2023-04-08T09:44:37.237Z,15.17
2023-04-08T09:47:11.376Z,15.16
2023-04-08T09:49:43.489Z,15.17
2023-04-08T09:52:16.739Z,15.15
2023-04-08T09:54:55.810Z,15.14
2023-04-08T09:57:33.595Z,15.16
2023-04-08T10:00:06.682Z,15.16
2023-04-08T10:02:57.289Z,15.21
2023-04-08T10:05:26.905Z,15.43
2023-04-08T10:07:57.784Z,15.62
2023-04-08T10:10:28.123Z,15.83
2023-04-08T10:12:56.709Z,16.00
2023-04-08T10:15:27.223Z,16.14
2023-04-08T10:17:55.777Z,16.31
2023-04-08T10:20:44.008Z,16.50
2023-04-08T10:23:14.793Z,16.66
2023-04-08T10:25:44.976Z,16.83
2023-04-08T10:28:27.243Z,16.98
2023-04-08T10:30:56.685Z,17.09
2023-04-08T10:33:32.918Z,17.20
2023-04-08T10:36:05.316Z,17.29
2023-04-08T10:38:35.227Z,17.38
2023-04-08T10:41:04.208Z,17.50
2023-04-08T10:43:34.124Z,17.58
2023-04-08T10:46:02.255Z,17.67
2023-04-08T10:48:30.546Z,17.74
2023-04-08T10:51:00.711Z,17.86
2023-04-08T10:53:30.091Z,17.92
2023-04-08T10:56:07.498Z,18.00
2023-04-08T10:58:36.425Z,18.07
2023-04-08T11:01:06.831Z,18.12
2023-04-08T11:03:36.333Z,18.15
2023-04-08T11:06:05.198Z,18.21
2023-04-08T11:08:34.439Z,18.24
2023-04-08T11:11:02.921Z,18.28
2023-04-08T11:13:32.893Z,18.33
2023-04-08T11:16:02.632Z,18.36
2023-04-08T11:18:32.280Z,18.43
2023-04-08T11:21:01.760Z,18.48
2023-04-08T11:23:30.615Z,18.55
2023-04-08T11:26:06.354Z,18.61
2023-04-08T11:28:36.565Z,18.68
2023-04-08T11:31:05.998Z,18.72
2023-04-08T11:33:35.487Z,18.78
2023-04-08T11:36:05.312Z,18.81
2023-04-08T11:38:34.658Z,18.88
2023-04-08T11:41:03.041Z,18.92
2023-04-08T11:43:31.160Z,18.95
2023-04-08T11:46:00.882Z,18.97
2023-04-08T11:48:32.833Z,18.95
2023-04-08T11:51:09.658Z,18.97
2023-04-08T11:53:38.039Z,18.96
2023-04-08T11:56:19.480Z,18.95
2023-04-08T11:58:48.241Z,18.92
2023-04-08T12:01:17.818Z,18.90
2023-04-08T12:04:00.413Z,18.88
2023-04-08T12:06:29.816Z,18.86
2023-04-08T12:08:58.079Z,18.84
2023-04-08T12:11:34.976Z,18.81
2023-04-08T12:14:03.150Z,18.79
2023-04-08T12:16:32.803Z,18.76
2023-04-08T12:19:01.195Z,18.73
2023-04-08T12:21:29.342Z,18.70
2023-04-08T12:23:57.503Z,18.67
2023-04-08T12:26:25.567Z,18.66
2023-04-08T12:28:53.906Z,18.64
2023-04-08T12:31:22.774Z,18.62
2023-04-08T12:33:52.579Z,18.60
2023-04-08T12:36:20.880Z,18.57
2023-04-08T12:38:49.733Z,18.53
2023-04-08T12:41:18.011Z,18.52
2023-04-08T12:43:46.505Z,18.48
2023-04-08T12:46:14.650Z,18.47
2023-04-08T12:48:45.108Z,18.45
2023-04-08T12:51:14.943Z,18.40
2023-04-08T12:53:43.170Z,18.39
2023-04-08T12:56:11.389Z,18.38
2023-04-08T12:58:39.509Z,18.36
2023-04-08T13:01:07.790Z,18.34
2023-04-08T13:03:36.331Z,18.30
2023-04-08T13:06:04.823Z,18.29
2023-04-08T13:08:34.267Z,18.26
2023-04-08T13:11:02.819Z,18.24
2023-04-08T13:13:30.958Z,18.23
2023-04-08T13:15:59.982Z,18.20
2023-04-08T13:18:28.284Z,18.18
2023-04-08T13:20:58.126Z,18.16
2023-04-08T13:23:26.528Z,18.14
2023-04-08T13:25:56.295Z,18.12
2023-04-08T13:28:24.338Z,18.10
2023-04-08T13:30:55.886Z,18.07
2023-04-08T13:33:24.070Z,18.06
2023-04-08T13:35:52.303Z,18.03
2023-04-08T13:38:20.633Z,18.02
2023-04-08T13:40:50.184Z,18.00
2023-04-08T13:43:20.696Z,17.99
2023-04-08T13:45:49.065Z,17.96
2023-04-08T13:48:17.230Z,17.94
2023-04-08T13:50:46.809Z,17.91
2023-04-08T13:53:17.466Z,17.90
2023-04-08T13:55:46.187Z,17.88
2023-04-08T13:58:23.300Z,17.88
2023-04-08T14:00:53.588Z,17.83
2023-04-08T14:03:24.540Z,17.83
2023-04-08T14:05:53.773Z,17.82
2023-04-08T14:08:25.520Z,17.79
2023-04-08T14:10:54.142Z,17.79
2023-04-08T14:13:22.557Z,17.77
2023-04-08T14:15:52.309Z,17.76
2023-04-08T14:18:22.175Z,17.73
2023-04-08T14:20:50.210Z,17.69
2023-04-08T14:23:18.349Z,17.71
2023-04-08T14:25:46.512Z,17.69
2023-04-08T14:28:14.757Z,17.67
2023-04-08T14:30:43.019Z,17.66
2023-04-08T14:33:12.128Z,17.64
2023-04-08T14:35:41.624Z,17.62
2023-04-08T14:38:12.650Z,17.61
2023-04-08T14:40:40.775Z,17.61
2023-04-08T14:43:08.880Z,17.59
2023-04-08T14:45:36.975Z,17.59
2023-04-08T14:48:05.377Z,17.57
2023-04-08T14:50:34.155Z,17.53
2023-04-08T14:53:03.684Z,17.54
2023-04-08T14:55:32.405Z,17.54
2023-04-08T14:58:01.281Z,17.51
2023-04-08T15:00:29.751Z,17.51
2023-04-08T15:02:58.153Z,17.49
2023-04-08T15:05:26.582Z,17.48
2023-04-08T15:07:55.515Z,17.48
2023-04-08T15:10:25.035Z,17.46
2023-04-08T15:12:53.188Z,17.45
2023-04-08T15:15:21.298Z,17.44
2023-04-08T15:17:51.654Z,17.42
2023-04-08T15:20:20.595Z,17.40
2023-04-08T15:22:49.447Z,17.39
2023-04-08T15:25:17.634Z,17.40
2023-04-08T15:27:47.128Z,17.38
2023-04-08T15:30:24.205Z,17.37
2023-04-08T15:32:52.735Z,17.36
2023-04-08T15:35:21.013Z,17.34
2023-04-08T15:37:49.138Z,17.34
2023-04-08T15:40:17.987Z,17.34
2023-04-08T15:42:47.479Z,17.33
2023-04-08T15:45:15.675Z,17.32
2023-04-08T15:47:44.108Z,17.30
2023-04-08T15:50:13.041Z,17.28
2023-04-08T15:52:44.849Z,17.28
2023-04-08T15:55:13.155Z,17.26
2023-04-08T15:57:41.901Z,17.26
2023-04-08T16:00:14.377Z,17.24
2023-04-08T16:02:46.654Z,17.23
2023-04-08T16:05:14.937Z,17.22
2023-04-08T16:07:43.248Z,17.20
2023-04-08T16:10:12.268Z,17.20
2023-04-08T16:12:40.592Z,17.17
2023-04-08T16:15:09.507Z,17.15
2023-04-08T16:17:39.108Z,17.15
2023-04-08T16:20:08.275Z,17.13
2023-04-08T16:22:36.895Z,17.11
2023-04-08T16:25:05.684Z,17.12
2023-04-08T16:27:33.807Z,17.11
2023-04-08T16:30:02.060Z,17.09
2023-04-08T16:32:30.734Z,17.07
2023-04-08T16:35:00.344Z,17.04
2023-04-08T16:37:28.482Z,17.04
2023-04-08T16:39:56.962Z,17.04
2023-04-08T16:42:25.157Z,17.03
2023-04-08T16:44:57.315Z,17.02
2023-04-08T16:47:25.550Z,16.96
2023-04-08T16:49:54.545Z,16.99
2023-04-08T16:52:24.229Z,16.98
2023-04-08T16:54:53.344Z,16.96
2023-04-08T16:57:21.493Z,16.95
2023-04-08T16:59:50.587Z,16.95
2023-04-08T17:02:19.096Z,16.93
2023-04-08T17:04:50.840Z,16.91
2023-04-08T17:07:18.986Z,16.92
2023-04-08T17:09:52.794Z,16.95
2023-04-08T17:12:21.181Z,17.00
2023-04-08T17:14:49.454Z,17.09
2023-04-08T17:17:17.710Z,17.17
2023-04-08T17:19:45.951Z,17.26
2023-04-08T17:22:14.226Z,17.37
2023-04-08T17:24:42.449Z,17.48
2023-04-08T17:27:14.683Z,17.56
2023-04-08T17:29:43.015Z,17.67
2023-04-08T17:32:12.498Z,17.77
2023-04-08T17:34:41.027Z,17.86
2023-04-08T17:37:10.244Z,17.93
2023-04-08T17:39:40.998Z,18.02
2023-04-08T17:42:09.391Z,18.08
2023-04-08T17:44:42.122Z,18.18
2023-04-08T17:47:10.578Z,18.23
2023-04-08T17:49:39.939Z,18.33
2023-04-08T17:52:08.508Z,18.37
2023-04-08T17:54:36.612Z,18.47
2023-04-08T17:57:05.208Z,18.53
2023-04-08T17:59:36.470Z,18.60
2023-04-08T18:02:06.141Z,18.69
2023-04-08T18:04:34.293Z,18.74
2023-04-08T18:07:04.494Z,18.81
2023-04-08T18:09:32.820Z,18.84
2023-04-08T18:12:01.376Z,18.86
2023-04-08T18:14:30.827Z,18.89
2023-04-08T18:16:59.112Z,18.92
2023-04-08T18:19:28.727Z,18.94
2023-04-08T18:21:56.863Z,18.96
2023-04-08T18:24:25.219Z,18.98
2023-04-08T18:27:03.582Z,19.03
2023-04-08T18:29:33.217Z,19.07
2023-04-08T18:32:01.678Z,19.12
2023-04-08T18:34:32.037Z,19.16
2023-04-08T18:37:01.005Z,19.23
2023-04-08T18:39:29.332Z,19.27
2023-04-08T18:41:57.754Z,19.30
2023-04-08T18:44:25.806Z,19.35
2023-04-08T18:46:54.093Z,19.39
2023-04-08T18:49:22.388Z,19.42
2023-04-08T18:52:02.004Z,19.51
2023-04-08T18:54:31.883Z,19.56
2023-04-08T18:57:00.076Z,19.60
2023-04-08T18:59:30.024Z,19.67
2023-04-08T19:01:58.662Z,19.70
2023-04-08T19:04:27.579Z,19.75
2023-04-08T19:06:57.481Z,19.78
2023-04-08T19:09:26.186Z,19.79
2023-04-08T19:11:54.572Z,19.83
2023-04-08T19:14:22.806Z,19.82
2023-04-08T19:16:51.071Z,19.83
2023-04-08T19:19:19.338Z,19.85
2023-04-08T19:21:48.815Z,19.86
2023-04-08T19:24:18.389Z,19.79
2023-04-08T19:26:46.682Z,19.82
2023-04-08T19:29:14.782Z,19.78
2023-04-08T19:31:43.312Z,19.77
2023-04-08T19:34:11.571Z,19.74
2023-04-08T19:36:39.614Z,19.71
2023-04-08T19:39:07.969Z,19.68
2023-04-08T19:41:37.970Z,19.62
2023-04-08T19:44:06.403Z,19.59
2023-04-08T19:46:34.605Z,19.56
2023-04-08T19:49:02.869Z,19.49
2023-04-08T19:51:31.398Z,19.47
2023-04-08T19:53:59.922Z,19.43
2023-04-08T19:56:28.056Z,19.40
2023-04-08T19:58:57.821Z,19.35
2023-04-08T20:01:26.296Z,19.29
2023-04-08T20:03:55.263Z,19.27
2023-04-08T20:06:23.435Z,19.24
2023-04-08T20:08:53.531Z,19.22
2023-04-08T20:11:22.214Z,19.24
2023-04-08T20:13:51.341Z,19.27
2023-04-08T20:16:21.057Z,19.30
2023-04-08T20:18:49.542Z,19.31
2023-04-08T20:21:18.551Z,19.33
2023-04-08T20:23:47.290Z,19.33
2023-04-08T20:26:15.715Z,19.33
2023-04-08T20:28:45.984Z,19.36
2023-04-08T20:31:14.386Z,19.40
2023-04-08T20:33:45.513Z,19.45
2023-04-08T20:36:15.548Z,19.52
2023-04-08T20:38:43.669Z,19.60
2023-04-08T20:41:12.116Z,19.63
2023-04-08T20:43:40.626Z,19.67
2023-04-08T20:46:09.250Z,19.74
2023-04-08T20:48:37.445Z,19.78
2023-04-08T20:51:06.959Z,19.84
2023-04-08T20:53:36.406Z,19.88
2023-04-08T20:56:04.872Z,19.89
2023-04-08T20:58:33.159Z,19.91
2023-04-08T21:01:01.522Z,19.90
2023-04-08T21:03:29.886Z,19.89
2023-04-08T21:05:58.637Z,19.87
2023-04-08T21:08:28.759Z,19.85
2023-04-08T21:10:56.952Z,19.83
2023-04-08T21:13:25.042Z,19.79
2023-04-08T21:15:53.127Z,19.75
2023-04-08T21:18:21.356Z,19.71
2023-04-08T21:20:50.047Z,19.67
2023-04-08T21:23:18.143Z,19.64
2023-04-08T21:25:47.549Z,19.59
2023-04-08T21:28:15.682Z,19.55
2023-04-08T21:30:43.930Z,19.52
2023-04-08T21:33:12.161Z,19.48
2023-04-08T21:35:40.382Z,19.43
2023-04-08T21:38:08.811Z,19.40
2023-04-08T21:40:36.884Z,19.36
2023-04-08T21:43:06.308Z,19.30
2023-04-08T21:45:34.423Z,19.26
2023-04-08T21:48:02.446Z,19.19
2023-04-08T21:50:31.397Z,19.16
2023-04-08T21:52:59.559Z,19.12
2023-04-08T21:55:29.250Z,19.07
2023-04-08T21:57:57.377Z,19.04
2023-04-08T22:00:27.922Z,19.00
2023-04-08T22:02:56.394Z,18.95
2023-04-08T22:05:24.572Z,18.92
2023-04-08T22:07:54.169Z,18.88
2023-04-08T22:10:22.502Z,18.83
2023-04-08T22:12:50.786Z,18.79
2023-04-08T22:15:18.906Z,18.74
2023-04-08T22:17:48.473Z,18.71
2023-04-08T22:20:16.680Z,18.67
2023-04-08T22:22:45.513Z,18.64
2023-04-08T22:25:13.785Z,18.60
2023-04-08T22:27:42.054Z,18.55
2023-04-08T22:30:11.284Z,18.52
2023-04-08T22:32:39.652Z,18.47
2023-04-08T22:35:10.701Z,18.43
2023-04-08T22:37:38.891Z,18.43
2023-04-08T22:40:08.493Z,18.37
2023-04-08T22:42:36.762Z,18.33
2023-04-08T22:45:05.817Z,18.29
2023-04-08T22:47:34.019Z,18.27
2023-04-08T22:50:02.179Z,18.23
2023-04-08T22:52:32.053Z,18.19
2023-04-08T22:55:00.584Z,18.16
2023-04-08T22:57:28.795Z,18.13
2023-04-08T22:59:57.440Z,18.10
2023-04-08T23:02:25.716Z,18.05
2023-04-08T23:04:55.985Z,18.02
2023-04-08T23:07:24.331Z,18.01
2023-04-08T23:09:53.892Z,17.98
2023-04-08T23:12:22.021Z,17.96
2023-04-08T23:14:50.044Z,17.93
2023-04-08T23:17:18.199Z,17.91
2023-04-08T23:19:46.492Z,17.86
2023-04-08T23:22:15.096Z,17.85
2023-04-08T23:24:43.161Z,17.82
2023-04-08T23:27:12.665Z,17.78
2023-04-08T23:29:40.998Z,17.76
2023-04-08T23:32:09.134Z,17.72
2023-04-08T23:34:40.336Z,17.70
2023-04-08T23:37:08.411Z,17.68
2023-04-08T23:39:36.691Z,17.66
2023-04-08T23:42:04.940Z,17.60
2023-04-08T23:44:34.353Z,17.60
2023-04-08T23:47:02.416Z,17.58
2023-04-08T23:49:31.037Z,17.54
2023-04-08T23:51:59.222Z,17.53
2023-04-08T23:54:30.436Z,17.51
2023-04-08T23:56:58.526Z,17.48
2023-04-08T23:59:28.789Z,17.45
